Troy, North Carolina
Current Conditions -  °F | °C
As of 1:15 PM on Thursday 27 Nov 2014 (Local Time) from KVUJ Reporting Station
Broken Clouds Broken Clouds  
Wind Chill: 46°   Ceiling: 6500
Heat Index: 50°   Visibility: 10mi
Dew Point: 36°   Wind: 9mph
Humidity: 60%   Direction: 340°NNW
Pressure: 30.13"   Gusts: 21mph
Location:  35.36°N, 79.89°W
Report Text: KVUJ 271815Z AUTO 34008G18KT 10SM SCT034 SCT046 BKN065 10/02 A3013 RMK AO2 T00980023
Loading
Personal Weather Stations






























Interactive Weather Map New forecast layout! Learn more

10-Day Weather Forecast

Advertisements
Track Severe Weather on mobile